createdAt,value
2019-03-22T00:00:30.890Z,15.70
2019-03-22T00:01:35.491Z,13.45
2019-03-22T00:02:40.072Z,14.40
2019-03-22T00:03:44.708Z,15.13
2019-03-22T00:04:49.582Z,16.87
2019-03-22T00:05:54.188Z,16.27
2019-03-22T00:06:58.810Z,15.98
2019-03-22T00:08:03.440Z,16.17
2019-03-22T00:09:08.571Z,16.00
2019-03-22T00:10:13.159Z,17.02
2019-03-22T00:11:17.779Z,17.02
2019-03-22T00:12:22.649Z,16.85
2019-03-22T00:13:27.266Z,16.82
2019-03-22T00:14:31.853Z,16.93
2019-03-22T00:15:36.467Z,17.00
2019-03-22T00:16:41.065Z,17.50
2019-03-22T00:17:45.683Z,16.90
2019-03-22T00:18:50.596Z,16.50
2019-03-22T00:19:55.200Z,16.07
2019-03-22T00:20:59.813Z,15.53
2019-03-22T00:22:04.434Z,16.12
2019-03-22T00:23:09.055Z,15.55
2019-03-22T00:24:13.687Z,14.95
2019-03-22T00:25:18.283Z,14.80
2019-03-22T00:26:22.889Z,15.48
2019-03-22T00:27:27.548Z,14.98
2019-03-22T00:28:32.243Z,13.65
2019-03-22T00:29:36.880Z,14.00
2019-03-22T00:30:41.499Z,15.10
2019-03-22T00:31:46.082Z,13.68
2019-03-22T00:32:50.687Z,13.83
2019-03-22T00:33:55.309Z,13.13
2019-03-22T00:35:00.000Z,12.88
2019-03-22T00:36:04.610Z,13.45
2019-03-22T00:37:09.228Z,12.65
2019-03-22T00:38:13.843Z,12.93
2019-03-22T00:39:18.455Z,13.32
2019-03-22T00:40:23.075Z,13.05
2019-03-22T00:41:27.688Z,12.95
2019-03-22T00:42:32.301Z,12.53
2019-03-22T00:43:36.919Z,13.25
2019-03-22T00:44:41.878Z,13.15
2019-03-22T00:45:46.512Z,12.60
2019-03-22T00:46:51.123Z,12.85
2019-03-22T00:47:55.728Z,12.90
2019-03-22T00:49:00.355Z,13.80
2019-03-22T00:50:05.004Z,12.98
2019-03-22T00:51:09.619Z,12.58
2019-03-22T00:52:14.302Z,12.70
2019-03-22T00:53:18.946Z,13.08
2019-03-22T00:54:23.536Z,12.33
2019-03-22T00:55:28.159Z,12.37
2019-03-22T00:56:32.783Z,12.25
2019-03-22T00:57:37.408Z,12.98
2019-03-22T00:58:42.030Z,11.85
2019-03-22T00:59:46.618Z,11.90
2019-03-22T01:00:52.430Z,12.43
2019-03-22T01:01:57.425Z,11.25
2019-03-22T01:03:02.049Z,12.30
2019-03-22T01:04:06.659Z,12.00
2019-03-22T01:05:11.308Z,12.00
2019-03-22T01:06:15.932Z,12.40
2019-03-22T01:07:20.549Z,12.18
2019-03-22T01:08:25.151Z,12.13
2019-03-22T01:09:29.772Z,12.18
2019-03-22T01:10:34.395Z,12.78
2019-03-22T01:11:39.011Z,11.57
2019-03-22T01:12:43.624Z,12.37
2019-03-22T01:13:48.222Z,11.48
2019-03-22T01:14:52.827Z,11.12
2019-03-22T01:15:57.446Z,12.05
2019-03-22T01:17:02.066Z,13.00
2019-03-22T01:18:06.651Z,12.07
2019-03-22T01:19:11.258Z,12.82
2019-03-22T01:20:16.211Z,11.83
2019-03-22T01:21:20.831Z,10.82
2019-03-22T01:22:25.467Z,11.95
2019-03-22T01:23:30.087Z,10.70
2019-03-22T01:24:34.698Z,11.53
2019-03-22T01:25:39.299Z,11.55
2019-03-22T01:26:43.927Z,10.72
2019-03-22T01:27:48.537Z,12.98
2019-03-22T01:28:53.142Z,10.32
2019-03-22T01:29:57.764Z,10.18
2019-03-22T01:31:02.366Z,10.78
2019-03-22T01:32:07.001Z,10.43
2019-03-22T01:33:11.600Z,10.32
2019-03-22T01:34:16.205Z,10.08
2019-03-22T01:35:20.807Z,11.20
2019-03-22T01:36:25.403Z,9.85
2019-03-22T01:37:30.016Z,9.18
2019-03-22T01:38:34.644Z,8.35
2019-03-22T01:39:39.247Z,8.18
2019-03-22T01:40:43.851Z,8.10
2019-03-22T01:41:48.455Z,7.87
2019-03-22T01:42:53.090Z,7.80
2019-03-22T01:43:57.678Z,7.20
2019-03-22T01:45:02.287Z,7.53
2019-03-22T01:46:06.899Z,7.20
2019-03-22T01:47:11.547Z,7.40
2019-03-22T01:48:16.161Z,6.70
2019-03-22T01:49:20.771Z,7.50
2019-03-22T01:50:25.375Z,6.78
2019-03-22T01:51:29.956Z,6.87
2019-03-22T01:52:34.587Z,7.40
2019-03-22T01:53:39.187Z,7.12
2019-03-22T01:54:43.783Z,7.33
2019-03-22T01:55:50.200Z,6.78
2019-03-22T01:56:54.784Z,7.45
2019-03-22T01:57:59.405Z,7.00
2019-03-22T01:59:04.052Z,7.08
2019-03-22T02:00:09.623Z,6.95
2019-03-22T02:01:14.241Z,7.40
2019-03-22T02:02:18.842Z,6.65
2019-03-22T02:03:23.472Z,6.72
2019-03-22T02:04:28.087Z,6.58
2019-03-22T02:05:32.685Z,6.58
2019-03-22T02:06:37.299Z,6.85
2019-03-22T02:07:41.947Z,6.53
2019-03-22T02:08:46.555Z,6.97
2019-03-22T02:09:51.142Z,6.33
2019-03-22T02:10:55.755Z,6.95
2019-03-22T02:12:00.338Z,7.05
2019-03-22T02:13:04.938Z,6.62
2019-03-22T02:14:09.543Z,6.78
2019-03-22T02:15:14.514Z,7.00
2019-03-22T02:16:19.122Z,6.72
2019-03-22T02:17:23.737Z,6.35
2019-03-22T02:18:28.385Z,6.22
2019-03-22T02:19:32.986Z,6.05
2019-03-22T02:20:37.582Z,6.60
2019-03-22T02:21:44.154Z,6.85
2019-03-22T02:22:48.800Z,6.55
2019-03-22T02:23:53.435Z,6.42
2019-03-22T02:24:58.103Z,6.72
2019-03-22T02:26:02.707Z,6.47
2019-03-22T02:27:07.311Z,6.80
2019-03-22T02:28:11.919Z,6.70
2019-03-22T02:29:16.583Z,7.03
2019-03-22T02:30:21.227Z,6.37
2019-03-22T02:31:25.902Z,7.35
2019-03-22T02:32:30.547Z,6.72
2019-03-22T02:33:35.153Z,6.78
2019-03-22T02:34:39.758Z,6.30
2019-03-22T02:35:44.386Z,6.30
2019-03-22T02:36:48.979Z,5.87
2019-03-22T02:37:53.590Z,6.72
2019-03-22T02:38:58.215Z,6.67
2019-03-22T02:40:02.836Z,6.60
2019-03-22T02:41:07.446Z,6.45
2019-03-22T02:42:12.048Z,6.67
2019-03-22T02:43:16.686Z,5.87
2019-03-22T02:44:21.284Z,6.00
2019-03-22T02:45:25.889Z,6.35
2019-03-22T02:46:30.510Z,6.20
2019-03-22T02:47:35.168Z,6.47
2019-03-22T02:48:39.847Z,6.25
2019-03-22T02:49:44.456Z,6.65
2019-03-22T02:50:49.055Z,6.35
2019-03-22T02:51:55.192Z,6.75
2019-03-22T02:52:59.834Z,6.67
2019-03-22T02:54:05.053Z,6.00
2019-03-22T02:55:09.732Z,5.62
2019-03-22T02:56:14.429Z,6.00
2019-03-22T02:57:19.132Z,5.67
2019-03-22T02:58:23.764Z,5.70
2019-03-22T02:59:28.396Z,5.78
2019-03-22T03:00:32.992Z,5.80
2019-03-22T03:01:37.601Z,6.15
2019-03-22T03:02:42.203Z,5.72
2019-03-22T03:03:46.830Z,5.75
2019-03-22T03:04:51.504Z,5.30
2019-03-22T03:05:56.193Z,5.53
2019-03-22T03:07:00.809Z,4.92
2019-03-22T03:08:05.408Z,5.53
2019-03-22T03:09:10.048Z,5.65
2019-03-22T03:10:14.745Z,5.47
2019-03-22T03:11:19.467Z,5.65
2019-03-22T03:12:24.068Z,6.15
2019-03-22T03:13:28.696Z,5.80
2019-03-22T03:14:33.312Z,5.85
2019-03-22T03:15:37.923Z,5.60
2019-03-22T03:16:42.519Z,5.90
2019-03-22T03:17:47.119Z,5.87
2019-03-22T03:18:51.750Z,6.03
2019-03-22T03:19:56.342Z,5.50
2019-03-22T03:21:00.935Z,6.58
2019-03-22T03:22:05.554Z,6.20
2019-03-22T03:23:10.264Z,5.90
2019-03-22T03:24:14.920Z,5.85
2019-03-22T03:25:19.520Z,5.67
2019-03-22T03:26:24.136Z,5.80
2019-03-22T03:27:28.724Z,6.10
2019-03-22T03:28:37.196Z,6.00
2019-03-22T03:29:39.669Z,6.35
2019-03-22T03:30:44.257Z,5.90
2019-03-22T03:31:48.865Z,5.97
2019-03-22T03:32:53.463Z,6.03
2019-03-22T03:33:58.173Z,6.15
2019-03-22T03:35:02.848Z,5.80
2019-03-22T03:36:07.462Z,5.83
2019-03-22T03:37:12.069Z,6.15
2019-03-22T03:38:16.760Z,5.95
2019-03-22T03:39:21.455Z,5.78
2019-03-22T03:40:26.388Z,6.40
2019-03-22T03:41:30.980Z,5.55
2019-03-22T03:42:35.592Z,6.30
2019-03-22T03:43:40.235Z,5.95
2019-03-22T03:44:44.854Z,6.10
2019-03-22T03:45:49.459Z,5.72
2019-03-22T03:46:54.107Z,6.15
2019-03-22T03:47:58.995Z,5.92
2019-03-22T03:49:04.620Z,6.78
2019-03-22T03:50:09.302Z,6.85
2019-03-22T03:51:13.911Z,6.67
2019-03-22T03:52:18.511Z,6.80
2019-03-22T03:53:23.112Z,6.60
2019-03-22T03:54:27.740Z,6.25
2019-03-22T03:55:32.399Z,5.67
2019-03-22T03:56:36.995Z,6.00
2019-03-22T03:57:41.788Z,5.70
2019-03-22T03:58:52.762Z,5.90
2019-03-22T03:59:52.781Z,5.70
2019-03-22T04:00:57.397Z,5.83
2019-03-22T04:02:02.012Z,5.75
2019-03-22T04:03:06.769Z,5.72
2019-03-22T04:04:11.457Z,5.65
2019-03-22T04:05:16.081Z,5.85
2019-03-22T04:06:20.763Z,5.87
2019-03-22T04:07:25.434Z,5.83
2019-03-22T04:08:30.061Z,5.90
2019-03-22T04:09:35.887Z,5.85
2019-03-22T04:10:40.491Z,6.05
2019-03-22T04:11:45.077Z,5.92
2019-03-22T04:12:49.682Z,5.78
2019-03-22T04:13:54.347Z,5.90
2019-03-22T04:14:58.984Z,5.55
2019-03-22T04:16:03.652Z,5.17
2019-03-22T04:17:08.255Z,6.10
2019-03-22T04:18:13.036Z,6.08
2019-03-22T04:19:17.668Z,5.47
2019-03-22T04:20:22.287Z,5.60
2019-03-22T04:21:26.907Z,5.12
2019-03-22T04:22:31.575Z,5.62
2019-03-22T04:23:36.224Z,6.00
2019-03-22T04:24:40.822Z,5.55
2019-03-22T04:25:45.438Z,5.35
2019-03-22T04:26:50.045Z,5.33
2019-03-22T04:27:54.653Z,6.42
2019-03-22T04:29:07.115Z,5.80
2019-03-22T04:30:05.753Z,6.03
2019-03-22T04:31:10.375Z,5.92
2019-03-22T04:32:14.970Z,5.85
2019-03-22T04:33:19.585Z,6.33
2019-03-22T04:34:24.261Z,5.95
2019-03-22T04:35:28.863Z,5.58
2019-03-22T04:36:33.532Z,5.83
2019-03-22T04:37:38.160Z,5.97
2019-03-22T04:38:42.749Z,5.60
2019-03-22T04:39:47.356Z,6.40
2019-03-22T04:40:51.960Z,6.65
2019-03-22T04:41:56.571Z,5.67
2019-03-22T04:43:01.196Z,6.75
2019-03-22T04:44:05.809Z,6.62
2019-03-22T04:45:10.418Z,5.85
2019-03-22T04:46:16.775Z,5.95
2019-03-22T04:47:21.402Z,6.40
2019-03-22T04:48:27.967Z,5.95
2019-03-22T04:49:32.599Z,4.80
2019-03-22T04:50:38.067Z,5.87
2019-03-22T04:51:42.942Z,6.05
2019-03-22T04:52:47.555Z,5.70
2019-03-22T04:53:55.794Z,5.85
2019-03-22T04:55:00.699Z,5.72
2019-03-22T04:56:06.313Z,6.05
2019-03-22T04:57:10.934Z,5.08
2019-03-22T04:58:15.643Z,5.53
2019-03-22T04:59:20.251Z,5.42
2019-03-22T05:00:24.971Z,6.05
2019-03-22T05:01:29.641Z,5.65
2019-03-22T05:02:34.236Z,6.03
2019-03-22T05:03:38.820Z,5.37
2019-03-22T05:04:43.500Z,5.83
2019-03-22T05:05:48.121Z,5.37
2019-03-22T05:06:52.736Z,5.17
2019-03-22T05:07:57.354Z,5.83
2019-03-22T05:09:01.970Z,5.80
2019-03-22T05:10:06.968Z,5.62
2019-03-22T05:11:11.960Z,5.25
2019-03-22T05:12:16.779Z,5.65
2019-03-22T05:13:21.371Z,6.12
2019-03-22T05:14:25.966Z,5.65
2019-03-22T05:15:30.583Z,5.83
2019-03-22T05:16:35.718Z,5.90
2019-03-22T05:17:40.409Z,5.90
2019-03-22T05:18:46.692Z,6.30
2019-03-22T05:19:52.787Z,6.08
2019-03-22T05:20:57.393Z,6.30
2019-03-22T05:22:02.043Z,6.62
2019-03-22T05:23:06.883Z,6.95
2019-03-22T05:24:11.493Z,6.47
2019-03-22T05:25:16.091Z,6.47
2019-03-22T05:26:20.940Z,6.67
2019-03-22T05:27:25.568Z,6.87
2019-03-22T05:28:30.172Z,6.37
2019-03-22T05:29:34.773Z,6.20
2019-03-22T05:31:16.067Z,6.28
2019-03-22T05:32:21.290Z,5.53
2019-03-22T05:33:25.931Z,6.30
2019-03-22T05:34:30.539Z,6.37
2019-03-22T05:35:35.130Z,5.87
2019-03-22T05:36:39.722Z,6.17
2019-03-22T05:37:44.351Z,6.53
2019-03-22T05:38:48.956Z,6.28
2019-03-22T05:39:53.568Z,6.58
2019-03-22T05:40:58.191Z,7.08
2019-03-22T05:42:02.804Z,8.03
2019-03-22T05:43:07.412Z,6.87
2019-03-22T05:44:12.006Z,6.65
2019-03-22T05:45:16.622Z,6.37
2019-03-22T05:46:21.222Z,6.35
2019-03-22T05:47:25.914Z,6.42
2019-03-22T05:48:30.535Z,6.33
2019-03-22T05:49:35.150Z,6.58
2019-03-22T05:50:39.759Z,6.90
2019-03-22T05:51:44.387Z,6.58
2019-03-22T05:52:48.983Z,6.22
2019-03-22T05:53:53.596Z,6.15
2019-03-22T05:54:58.203Z,6.55
2019-03-22T05:56:02.922Z,6.20
2019-03-22T05:57:13.324Z,5.95
2019-03-22T05:58:13.940Z,6.00
2019-03-22T05:59:18.588Z,7.12
2019-03-22T06:00:23.187Z,7.95
2019-03-22T06:01:27.811Z,7.37
2019-03-22T06:02:32.412Z,7.10
2019-03-22T06:03:37.031Z,6.55
2019-03-22T06:04:41.645Z,6.33
2019-03-22T06:05:46.247Z,7.22
2019-03-22T06:06:50.870Z,6.37
2019-03-22T06:07:55.489Z,6.58
2019-03-22T06:09:00.203Z,6.15
2019-03-22T06:10:05.207Z,6.83
2019-03-22T06:11:09.807Z,7.58
2019-03-22T06:12:14.416Z,6.80
2019-03-22T06:13:20.116Z,6.53
2019-03-22T06:14:24.740Z,7.10
2019-03-22T06:15:29.460Z,5.87
2019-03-22T06:16:34.066Z,6.65
2019-03-22T06:17:38.666Z,7.15
2019-03-22T06:18:43.390Z,6.72
2019-03-22T06:19:48.059Z,6.10
2019-03-22T06:20:52.668Z,6.83
2019-03-22T06:21:57.482Z,7.00
2019-03-22T06:23:02.111Z,6.97
2019-03-22T06:24:06.772Z,5.95
2019-03-22T06:25:11.371Z,5.60
2019-03-22T06:26:15.983Z,6.83
2019-03-22T06:27:20.570Z,6.15
2019-03-22T06:28:25.188Z,5.95
2019-03-22T06:29:30.929Z,6.12
2019-03-22T06:30:35.563Z,6.25
2019-03-22T06:31:40.182Z,6.42
2019-03-22T06:32:44.784Z,5.92
2019-03-22T06:33:49.391Z,7.15
2019-03-22T06:34:54.078Z,8.98
2019-03-22T06:35:58.682Z,8.43
2019-03-22T06:37:03.286Z,7.87
2019-03-22T06:38:07.932Z,6.42
2019-03-22T06:39:12.569Z,6.37
2019-03-22T06:40:17.179Z,5.75
2019-03-22T06:41:21.786Z,5.78
2019-03-22T06:42:26.408Z,5.85
2019-03-22T06:43:31.008Z,6.40
2019-03-22T06:44:35.719Z,6.92
2019-03-22T06:45:40.351Z,6.10
2019-03-22T06:46:44.941Z,5.85
2019-03-22T06:47:49.574Z,6.37
2019-03-22T06:48:54.180Z,6.00
2019-03-22T06:49:58.835Z,6.33
2019-03-22T06:51:03.443Z,7.22
2019-03-22T06:52:08.056Z,7.37
2019-03-22T06:53:12.752Z,7.55
2019-03-22T06:54:17.414Z,7.10
2019-03-22T06:55:22.050Z,5.67
2019-03-22T06:56:26.645Z,6.45
2019-03-22T06:57:31.291Z,6.05
2019-03-22T06:58:35.919Z,5.95
2019-03-22T06:59:40.528Z,6.80
2019-03-22T07:00:45.157Z,6.40
2019-03-22T07:01:49.773Z,6.65
2019-03-22T07:02:54.374Z,6.45
2019-03-22T07:03:58.982Z,5.95
2019-03-22T07:05:03.581Z,5.90
2019-03-22T07:06:08.195Z,6.67
2019-03-22T07:07:12.827Z,6.40
2019-03-22T07:08:17.427Z,6.28
2019-03-22T07:09:22.023Z,6.25
2019-03-22T07:10:26.647Z,6.17
2019-03-22T07:11:31.258Z,6.50
2019-03-22T07:12:35.914Z,6.53
2019-03-22T07:13:40.619Z,6.25
2019-03-22T07:14:45.222Z,6.17
2019-03-22T07:15:49.842Z,6.25
2019-03-22T07:16:54.459Z,6.20
2019-03-22T07:17:59.107Z,6.33
2019-03-22T07:19:04.127Z,6.37
2019-03-22T07:20:08.731Z,5.85
2019-03-22T07:21:13.359Z,6.30
2019-03-22T07:22:17.972Z,6.35
2019-03-22T07:23:22.578Z,5.70
2019-03-22T07:24:27.183Z,6.67
2019-03-22T07:25:31.837Z,6.45
2019-03-22T07:26:36.467Z,6.50
2019-03-22T07:27:41.147Z,5.97
2019-03-22T07:28:45.844Z,6.33
2019-03-22T07:29:50.441Z,6.10
2019-03-22T07:30:55.027Z,6.85
2019-03-22T07:31:59.929Z,6.40
2019-03-22T07:33:04.531Z,5.70
2019-03-22T07:34:09.135Z,6.40
2019-03-22T07:35:14.066Z,6.15
2019-03-22T07:36:18.679Z,6.30
2019-03-22T07:37:23.605Z,5.97
2019-03-22T07:38:28.195Z,6.37
2019-03-22T07:39:33.051Z,5.92
2019-03-22T07:40:37.655Z,6.00
2019-03-22T07:41:42.296Z,6.03
2019-03-22T07:42:46.951Z,6.42
2019-03-22T07:43:51.565Z,6.60
2019-03-22T07:44:56.180Z,6.53
2019-03-22T07:46:01.082Z,6.00
2019-03-22T07:47:05.711Z,6.30
2019-03-22T07:48:10.315Z,5.45
2019-03-22T07:49:14.928Z,6.67
2019-03-22T07:50:19.527Z,6.15
2019-03-22T07:51:24.135Z,6.08
2019-03-22T07:52:28.742Z,5.97
2019-03-22T07:53:33.363Z,6.17
2019-03-22T07:54:37.966Z,6.20
2019-03-22T07:55:42.659Z,6.10
2019-03-22T07:56:47.264Z,6.03
2019-03-22T07:57:51.870Z,6.12
2019-03-22T07:58:56.471Z,6.37
2019-03-22T08:00:01.087Z,6.47
2019-03-22T08:01:05.702Z,6.62
2019-03-22T08:02:10.309Z,6.47
2019-03-22T08:03:14.923Z,7.55
2019-03-22T08:04:19.683Z,8.03
2019-03-22T08:05:25.506Z,7.53
2019-03-22T08:06:30.154Z,6.80
2019-03-22T08:07:35.116Z,6.97
2019-03-22T08:08:39.715Z,6.80
2019-03-22T08:09:44.373Z,6.85
2019-03-22T08:10:49.016Z,7.22
2019-03-22T08:11:53.642Z,6.70
2019-03-22T08:12:58.280Z,7.42
2019-03-22T08:14:02.870Z,7.47
2019-03-22T08:15:08.571Z,7.83
2019-03-22T08:16:13.503Z,7.50
2019-03-22T08:17:18.152Z,7.60
2019-03-22T08:18:22.835Z,6.78
2019-03-22T08:19:27.450Z,7.40
2019-03-22T08:20:32.088Z,7.40
2019-03-22T08:21:36.867Z,6.85
2019-03-22T08:22:41.536Z,7.50
2019-03-22T08:23:46.218Z,7.62
2019-03-22T08:24:50.973Z,7.08
2019-03-22T08:25:55.582Z,7.45
2019-03-22T08:27:00.219Z,7.53
2019-03-22T08:28:04.917Z,7.83
2019-03-22T08:29:09.593Z,8.08
2019-03-22T08:30:14.183Z,8.30
2019-03-22T08:31:18.891Z,8.83
2019-03-22T08:32:23.515Z,8.25
2019-03-22T08:33:28.246Z,7.75
2019-03-22T08:34:32.886Z,7.55
2019-03-22T08:35:37.600Z,7.55
2019-03-22T08:36:42.276Z,7.37
2019-03-22T08:37:52.498Z,7.67
2019-03-22T08:38:53.314Z,7.22
2019-03-22T08:39:58.126Z,6.85
2019-03-22T08:41:02.744Z,6.20
2019-03-22T08:42:07.402Z,6.75
2019-03-22T08:43:12.023Z,6.60
2019-03-22T08:44:16.644Z,6.03
2019-03-22T08:45:21.293Z,6.50
2019-03-22T08:46:26.044Z,7.50
2019-03-22T08:47:34.129Z,7.60
2019-03-22T08:48:37.077Z,7.60
2019-03-22T08:49:41.879Z,7.40
2019-03-22T08:50:46.765Z,6.10
2019-03-22T08:51:51.484Z,5.50
2019-03-22T08:52:56.221Z,6.45
2019-03-22T08:54:00.872Z,8.90
2019-03-22T08:55:05.883Z,6.67
2019-03-22T08:56:10.536Z,5.75
2019-03-22T08:57:15.159Z,6.15
2019-03-22T08:58:19.766Z,7.28
2019-03-22T08:59:24.395Z,8.50
2019-03-22T09:00:38.599Z,8.50
2019-03-22T09:01:35.362Z,7.25
2019-03-22T09:02:39.977Z,7.08
2019-03-22T09:03:44.656Z,6.05
2019-03-22T09:04:49.284Z,5.85
2019-03-22T09:05:53.885Z,6.92
2019-03-22T09:06:59.107Z,7.17
2019-03-22T09:08:03.941Z,7.05
2019-03-22T09:09:08.995Z,6.67
2019-03-22T09:10:13.676Z,7.37
2019-03-22T09:11:18.343Z,6.25
2019-03-22T09:12:23.431Z,5.72
2019-03-22T09:13:28.058Z,5.55
2019-03-22T09:14:32.681Z,5.80
2019-03-22T09:15:41.138Z,6.22
2019-03-22T09:16:43.632Z,6.30
2019-03-22T09:17:48.242Z,6.55
2019-03-22T09:18:52.848Z,5.78
2019-03-22T09:19:57.486Z,5.25
2019-03-22T09:21:02.195Z,5.67
2019-03-22T09:22:06.842Z,6.10
2019-03-22T09:23:11.446Z,5.80
2019-03-22T09:24:18.911Z,5.28
2019-03-22T09:25:22.422Z,5.60
2019-03-22T09:26:27.027Z,5.90
2019-03-22T09:27:31.638Z,6.03
2019-03-22T09:28:36.257Z,5.25
2019-03-22T09:29:40.980Z,6.33
2019-03-22T09:30:45.997Z,6.45
2019-03-22T09:31:53.566Z,6.25
2019-03-22T09:32:57.253Z,5.40
2019-03-22T09:34:01.964Z,5.78
2019-03-22T09:35:06.647Z,6.22
2019-03-22T09:36:11.298Z,6.15
2019-03-22T09:37:15.942Z,5.60
2019-03-22T09:38:20.639Z,5.92
2019-03-22T09:39:25.386Z,6.65
2019-03-22T09:40:30.166Z,6.08
2019-03-22T09:41:34.883Z,5.80
2019-03-22T09:42:39.506Z,6.62
2019-03-22T09:43:44.186Z,6.55
2019-03-22T09:44:49.241Z,7.55
2019-03-22T09:45:53.886Z,7.15
2019-03-22T09:46:58.532Z,7.25
2019-03-22T09:48:05.912Z,6.97
2019-03-22T09:49:09.555Z,7.25
2019-03-22T09:50:14.191Z,7.05
2019-03-22T09:51:18.888Z,6.65
2019-03-22T09:52:23.536Z,6.50
2019-03-22T09:53:30.376Z,8.08
2019-03-22T09:54:34.463Z,7.62
2019-03-22T09:55:39.084Z,7.05
2019-03-22T09:56:47.215Z,6.65
2019-03-22T09:57:50.123Z,6.17
2019-03-22T09:58:54.739Z,6.10
2019-03-22T09:59:59.359Z,6.75
2019-03-22T10:01:04.017Z,6.33
2019-03-22T10:02:08.824Z,6.12
2019-03-22T10:03:13.471Z,7.30
2019-03-22T10:04:18.186Z,6.35
2019-03-22T10:05:22.798Z,6.97
2019-03-22T10:06:27.429Z,8.10
2019-03-22T10:07:32.069Z,7.05
2019-03-22T10:08:36.679Z,5.97
2019-03-22T10:09:41.299Z,6.53
2019-03-22T10:10:45.975Z,6.00
2019-03-22T10:11:50.631Z,5.95
2019-03-22T10:12:55.291Z,5.87
2019-03-22T10:13:59.948Z,6.85
2019-03-22T10:15:05.078Z,6.03
2019-03-22T10:16:09.705Z,6.37
2019-03-22T10:17:14.425Z,5.67
2019-03-22T10:18:19.095Z,5.50
2019-03-22T10:19:23.839Z,6.42
2019-03-22T10:20:28.443Z,6.25
2019-03-22T10:21:33.106Z,6.30
2019-03-22T10:22:37.782Z,5.97
2019-03-22T10:23:42.539Z,7.00
2019-03-22T10:24:47.225Z,5.90
2019-03-22T10:25:51.856Z,5.72
2019-03-22T10:26:56.556Z,7.47
2019-03-22T10:28:01.331Z,6.45
2019-03-22T10:29:07.151Z,5.90
2019-03-22T10:30:12.236Z,5.97
2019-03-22T10:31:16.878Z,6.60
2019-03-22T10:32:23.865Z,6.20
2019-03-22T10:33:27.897Z,7.12
2019-03-22T10:34:32.587Z,6.28
2019-03-22T10:36:22.110Z,6.80
2019-03-22T10:37:26.822Z,6.45
2019-03-22T10:38:32.164Z,5.87
2019-03-22T10:39:37.094Z,5.42
2019-03-22T10:40:41.975Z,5.45
2019-03-22T10:41:46.666Z,5.35
2019-03-22T10:42:51.392Z,4.97
2019-03-22T10:43:56.018Z,5.45
2019-03-22T10:45:00.687Z,4.78
2019-03-22T10:46:07.864Z,5.25
2019-03-22T10:47:13.263Z,5.10
2019-03-22T10:48:17.985Z,5.10
2019-03-22T10:49:22.655Z,4.78
2019-03-22T10:50:27.318Z,5.30
2019-03-22T10:51:31.982Z,4.62
2019-03-22T10:52:36.617Z,4.65
2019-03-22T10:53:41.344Z,4.78
2019-03-22T10:54:45.972Z,4.72
2019-03-22T10:55:50.584Z,5.10
2019-03-22T10:56:55.490Z,4.92
2019-03-22T10:58:00.179Z,4.90
2019-03-22T10:59:04.816Z,5.20
2019-03-22T11:00:11.599Z,5.87
2019-03-22T11:01:16.244Z,5.17
2019-03-22T11:02:20.794Z,5.83
2019-03-22T11:03:25.435Z,5.85
2019-03-22T11:04:30.036Z,5.30
2019-03-22T11:05:34.660Z,5.03
2019-03-22T11:06:39.264Z,5.30
2019-03-22T11:07:43.871Z,4.58
2019-03-22T11:08:48.512Z,5.47
2019-03-22T11:12:40.391Z,4.45
2019-03-22T11:13:45.002Z,4.92
2019-03-22T11:14:49.633Z,4.95
2019-03-22T11:15:54.346Z,5.70
2019-03-22T11:16:59.318Z,5.42
2019-03-22T11:18:03.907Z,5.00
2019-03-22T11:19:08.510Z,5.22
2019-03-22T11:20:14.163Z,5.75
2019-03-22T11:21:18.763Z,5.47
2019-03-22T11:22:23.715Z,5.35
2019-03-22T11:23:28.312Z,5.10
2019-03-22T11:24:32.926Z,5.30
2019-03-22T11:25:37.958Z,5.75
2019-03-22T11:26:42.591Z,4.50
2019-03-22T11:27:47.236Z,5.87
2019-03-22T11:28:51.962Z,5.12
2019-03-22T11:29:56.565Z,5.33
2019-03-22T11:31:04.745Z,5.37
2019-03-22T11:32:12.561Z,5.05
2019-03-22T11:33:13.918Z,4.95
2019-03-22T11:34:18.694Z,4.97
2019-03-22T11:35:23.289Z,4.92
2019-03-22T11:36:27.891Z,5.62
2019-03-22T11:37:32.492Z,4.80
2019-03-22T11:38:37.100Z,5.85
2019-03-22T11:39:41.715Z,4.60
2019-03-22T11:40:47.077Z,5.58
2019-03-22T11:41:51.802Z,4.80
2019-03-22T11:42:56.475Z,4.80
2019-03-22T11:44:01.082Z,5.15
2019-03-22T11:45:07.253Z,5.25
2019-03-22T11:46:12.763Z,5.40
2019-03-22T11:47:17.379Z,4.90
2019-03-22T11:48:22.083Z,4.15
2019-03-22T11:49:26.723Z,4.55
2019-03-22T11:50:31.699Z,5.40
2019-03-22T11:51:36.347Z,5.17
2019-03-22T11:52:40.955Z,4.97
2019-03-22T11:53:45.570Z,3.85
2019-03-22T11:54:50.193Z,4.28
2019-03-22T11:55:54.798Z,3.67
2019-03-22T11:56:59.430Z,4.05
2019-03-22T11:58:04.027Z,4.10
2019-03-22T11:59:08.670Z,3.95
2019-03-22T12:00:16.198Z,3.62
2019-03-22T12:01:22.455Z,3.80
2019-03-22T12:02:27.146Z,3.90
2019-03-22T12:03:31.747Z,3.87
2019-03-22T12:04:36.342Z,3.40
2019-03-22T12:05:40.972Z,4.12
2019-03-22T12:06:45.571Z,4.20
2019-03-22T12:07:50.192Z,4.20
2019-03-22T12:08:55.164Z,3.47
2019-03-22T12:09:59.802Z,4.05
2019-03-22T12:11:04.417Z,3.58
2019-03-22T12:12:09.028Z,3.55
2019-03-22T12:13:13.660Z,3.60
2019-03-22T12:14:18.252Z,4.55
2019-03-22T12:15:22.926Z,4.58
2019-03-22T12:16:27.532Z,3.42
2019-03-22T12:17:32.126Z,5.85
2019-03-22T12:18:36.723Z,3.92
2019-03-22T12:19:42.428Z,3.83
2019-03-22T12:20:47.119Z,4.10
2019-03-22T12:21:51.703Z,4.37
2019-03-22T12:22:56.312Z,4.10
2019-03-22T12:24:00.916Z,3.95
2019-03-22T12:25:05.951Z,4.00
2019-03-22T12:26:10.560Z,3.75
2019-03-22T12:27:15.160Z,3.72
2019-03-22T12:28:19.772Z,3.75
2019-03-22T12:29:24.379Z,3.33
2019-03-22T12:30:29.027Z,4.30
2019-03-22T12:31:33.649Z,4.83
2019-03-22T12:32:38.256Z,4.30
2019-03-22T12:33:42.906Z,4.08
2019-03-22T12:34:47.559Z,4.42
2019-03-22T12:35:54.397Z,4.65
2019-03-22T12:36:59.008Z,4.20
2019-03-22T12:38:03.606Z,4.03
2019-03-22T12:39:09.518Z,4.30
2019-03-22T12:40:14.765Z,5.20
2019-03-22T12:41:19.379Z,4.50
2019-03-22T12:42:24.035Z,4.30
2019-03-22T12:43:28.630Z,4.22
2019-03-22T12:44:33.231Z,4.70
2019-03-22T12:45:37.851Z,3.90
2019-03-22T12:46:42.459Z,3.92
2019-03-22T12:47:47.057Z,3.27
2019-03-22T12:48:51.674Z,4.00
2019-03-22T12:49:56.274Z,3.77
2019-03-22T12:51:00.986Z,4.00
2019-03-22T12:52:05.591Z,3.25
2019-03-22T12:53:10.210Z,3.45
2019-03-22T12:54:14.829Z,3.62
2019-03-22T12:55:19.434Z,4.12
2019-03-22T12:56:24.124Z,4.08
2019-03-22T12:57:28.732Z,4.17
2019-03-22T12:58:33.346Z,3.90
2019-03-22T12:59:37.944Z,3.98
2019-03-22T13:00:42.589Z,4.47
2019-03-22T13:01:47.191Z,5.10
2019-03-22T13:02:51.838Z,4.33
2019-03-22T13:03:56.439Z,4.05
2019-03-22T13:05:01.111Z,4.05
2019-03-22T13:06:05.884Z,4.05
2019-03-22T13:07:10.484Z,4.47
2019-03-22T13:08:15.094Z,4.42
2019-03-22T13:09:19.713Z,4.17
2019-03-22T13:10:24.400Z,4.42
2019-03-22T13:11:29.005Z,4.53
2019-03-22T13:12:33.591Z,4.55
2019-03-22T13:13:38.219Z,4.30
2019-03-22T13:14:42.835Z,4.12
2019-03-22T13:15:47.455Z,4.75
2019-03-22T13:16:52.080Z,4.45
2019-03-22T13:17:57.890Z,3.70
2019-03-22T13:19:02.577Z,4.55
2019-03-22T13:20:09.196Z,4.28
2019-03-22T13:21:13.852Z,4.25
2019-03-22T13:22:18.550Z,3.80
2019-03-22T13:23:23.159Z,4.40
2019-03-22T13:24:27.799Z,3.60
2019-03-22T13:25:32.447Z,3.58
2019-03-22T13:26:37.052Z,3.70
2019-03-22T13:27:41.669Z,3.20
2019-03-22T13:28:46.263Z,3.25
2019-03-22T13:29:50.890Z,3.50
2019-03-22T13:30:55.557Z,3.85
2019-03-22T13:32:00.559Z,3.85
2019-03-22T13:33:05.335Z,3.60
2019-03-22T13:34:09.996Z,3.62
2019-03-22T13:35:14.656Z,3.80
2019-03-22T13:36:19.300Z,3.65
2019-03-22T13:37:23.906Z,3.90
2019-03-22T13:38:28.538Z,4.85
2019-03-22T13:39:33.139Z,4.00
2019-03-22T13:40:37.755Z,5.33
2019-03-22T13:41:42.357Z,4.25
2019-03-22T13:42:46.963Z,5.67
2019-03-22T13:43:51.564Z,4.35
2019-03-22T13:44:56.163Z,3.98
2019-03-22T13:46:00.779Z,4.37
2019-03-22T13:47:05.400Z,4.47
2019-03-22T13:48:10.004Z,3.92
2019-03-22T13:49:14.616Z,4.15
2019-03-22T13:50:19.222Z,3.87
2019-03-22T13:51:23.822Z,3.45
2019-03-22T13:52:28.505Z,4.28
2019-03-22T13:53:34.128Z,3.58
2019-03-22T13:54:38.725Z,3.60
2019-03-22T13:55:43.343Z,4.17
2019-03-22T13:56:47.963Z,4.50
2019-03-22T13:57:52.575Z,4.00
2019-03-22T13:58:57.160Z,4.08
2019-03-22T14:00:01.776Z,3.65
2019-03-22T14:01:06.388Z,3.70
2019-03-22T14:02:10.995Z,4.05
2019-03-22T14:03:15.586Z,4.00
2019-03-22T14:04:21.091Z,3.27
2019-03-22T14:05:25.707Z,3.85
2019-03-22T14:06:30.307Z,3.83
2019-03-22T14:07:34.903Z,3.85
2019-03-22T14:08:39.523Z,3.40
2019-03-22T14:09:44.533Z,2.87
2019-03-22T14:10:49.171Z,3.45
2019-03-22T14:11:53.767Z,3.10
2019-03-22T14:12:58.575Z,3.05
2019-03-22T14:14:03.217Z,3.65
2019-03-22T14:15:07.853Z,4.00
2019-03-22T14:16:12.458Z,3.55
2019-03-22T14:17:17.058Z,4.00
2019-03-22T14:18:21.658Z,3.70
2019-03-22T14:19:26.327Z,3.80
2019-03-22T14:20:31.220Z,3.27
2019-03-22T14:21:35.848Z,3.60
2019-03-22T14:22:40.449Z,3.50